Time;durP1;ratioP1;P1;durP2;ratioP2;P2;SDS_P1;SDS_P2;PMS_P1;PMS_P2;Temp;Humidity;BMP_temperature;BMP_pressure;BME280_temperature;BME280_humidity;BME280_pressure;Samples;Min_cycle;Max_cycle;Signal;HPM_P1;HPM_P2
2023/10/10 00:01:07;;;;;;;;;;;16.30;57.10;;;12.07;100.00;96149.09;4991803;28;20055;-46
2023/10/10 00:03:39;;;;;;;;;;;16.30;57.10;;;12.02;100.00;96149.84;4985798;28;19943;-50
2023/10/10 00:06:09;;;;;;;;;;;16.20;57.00;;;11.94;100.00;96161.03;4987599;28;19916;-50
2023/10/10 00:08:41;;;;;;;;;;;16.20;57.00;;;11.90;100.00;96161.78;4990394;28;19910;-47
2023/10/10 00:11:18;;;;;;;;;;;16.10;57.00;;;11.81;100.00;96156.94;4986162;28;19917;-49
2023/10/10 00:13:46;;;;;;;;;;;16.10;57.10;;;11.78;100.00;96157.44;4993333;28;20375;-51
2023/10/10 00:16:59;;;;;;;;;;;16.00;57.10;;;11.74;100.00;96159.00;4990956;28;19909;-46
2023/10/10 00:21:52;;;;;;;;;;;16.00;57.30;;;11.67;100.00;96161.09;4992586;28;20383;-51
2023/10/10 00:24:52;;;;;;;;;;;15.90;57.30;;;11.61;100.00;96155.97;4984207;28;19914;-48
2023/10/10 00:27:14;;;;;;;;;;;15.90;57.30;;;11.53;100.00;96158.09;4993454;28;20000;-49
2023/10/10 00:29:43;;;;;;;;;;;15.80;57.30;;;11.49;100.00;96151.63;4986289;28;19933;-47
2023/10/10 00:32:16;;;;;;;;;;;15.80;57.40;;;11.48;100.00;96144.69;4991981;28;19910;-46
2023/10/10 00:34:48;;;;;;;;;;;15.80;57.50;;;11.48;100.00;96147.34;4986275;28;19909;-46
2023/10/10 00:37:20;;;;;;;;;;;15.80;57.60;;;11.47;100.00;96145.75;4988190;28;19909;-46
2023/10/10 00:39:53;;;;;;;;;;;15.70;57.60;;;11.45;100.00;96137.19;4992337;28;20268;-49
2023/10/10 00:42:41;;;;;;;;;;;15.70;57.70;;;11.46;100.00;96138.81;4990140;28;19921;-46
2023/10/10 00:45:10;;;;;;;;;;;15.70;57.80;;;11.46;100.00;96136.13;4992070;28;19970;-46
2023/10/10 00:47:48;;;;;;;;;;;15.70;57.80;;;11.45;100.00;96139.06;4986108;28;20372;-46
2023/10/10 00:50:18;;;;;;;;;;;15.70;57.90;;;11.44;100.00;96138.28;4992179;28;20004;-46
2023/10/10 00:52:52;;;;;;;;;;;15.60;57.80;;;11.38;100.00;96141.16;4985240;28;20376;-46
2023/10/10 00:55:24;;;;;;;;;;;15.60;57.90;;;11.42;100.00;96140.38;4991971;28;19913;-46
2023/10/10 00:57:55;;;;;;;;;;;15.60;57.90;;;11.34;100.00;96140.84;4991307;28;19909;-46
2023/10/10 01:00:25;;;;;;;;;;;15.60;58.00;;;11.37;100.00;96147.53;4989836;28;19909;-46
2023/10/10 01:03:02;;;;;;;;;;;15.60;58.00;;;11.38;100.00;96147.28;4984378;28;19913;-48
2023/10/10 01:05:44;;;;;;;;;;;15.60;58.10;;;11.40;100.00;96155.81;4985087;28;19971;-52
2023/10/10 01:08:10;;;;;;;;;;;15.60;58.70;;;11.37;100.00;96152.88;4983842;28;19921;-46
2023/10/10 01:10:49;;;;;;;;;;;15.60;58.20;;;11.37;100.00;96153.66;4985021;28;20399;-51
2023/10/10 01:13:16;;;;;;;;;;;15.60;58.10;;;11.33;100.00;96150.72;4980065;28;20315;-46
2023/10/10 01:15:44;;;;;;;;;;;15.60;58.20;;;11.35;100.00;96153.94;4992022;28;19909;-48
2023/10/10 01:18:13;;;;;;;;;;;15.50;58.20;;;11.31;100.00;96155.50;4987249;28;20308;-48
2023/10/10 01:20:46;;;;;;;;;;;15.50;58.20;;;11.32;100.00;96153.66;4991397;28;19916;-50
2023/10/10 01:23:18;;;;;;;;;;;15.60;58.30;;;11.28;100.00;96148.03;4983289;28;19963;-48
2023/10/10 01:25:46;;;;;;;;;;;15.50;58.30;;;11.29;100.00;96143.50;4984681;28;19940;-46
2023/10/10 01:33:24;;;;;;;;;;;15.50;58.40;;;11.29;100.00;96133.63;4991414;28;19920;-52
2023/10/10 01:35:55;;;;;;;;;;;15.50;58.50;;;11.24;100.00;96135.44;4988295;28;20000;-48
2023/10/10 01:38:32;;;;;;;;;;;15.50;58.50;;;11.21;100.00;96128.75;4991848;28;19964;-46
2023/10/10 01:41:04;;;;;;;;;;;15.50;58.40;;;11.21;100.00;96127.94;4984978;28;19995;-50
2023/10/10 01:43:32;;;;;;;;;;;15.50;58.40;;;11.16;100.00;96135.94;4991668;28;20315;-46
2023/10/10 01:46:19;;;;;;;;;;;15.50;58.50;;;11.12;100.00;96130.28;4991478;28;19909;-48
2023/10/10 01:48:45;;;;;;;;;;;15.40;58.40;;;11.07;100.00;96133.72;4984859;28;19921;-51
2023/10/10 01:51:15;;;;;;;;;;;15.30;58.40;;;11.05;100.00;96135.03;4991077;28;19910;-46
2023/10/10 01:53:44;;;;;;;;;;;15.30;58.50;;;10.99;100.00;96131.50;4985624;28;19914;-50
2023/10/10 01:56:12;;;;;;;;;;;15.30;58.50;;;10.99;100.00;96134.16;4991395;28;19956;-53
2023/10/10 01:58:38;;;;;;;;;;;15.30;58.50;;;10.97;100.00;96128.31;4985937;28;20420;-46
2023/10/10 02:01:31;;;;;;;;;;;15.30;58.60;;;10.93;100.00;96129.03;4969586;28;19961;-48
2023/10/10 02:03:58;;;;;;;;;;;15.20;58.60;;;10.88;100.00;96130.63;4972359;28;19921;-49
2023/10/10 02:06:30;;;;;;;;;;;15.20;58.70;;;10.84;100.00;96142.84;4971424;28;19928;-52
2023/10/10 02:09:00;;;;;;;;;;;15.20;58.70;;;10.82;100.00;96136.94;4971389;28;19910;-50
2023/10/10 02:11:27;;;;;;;;;;;15.10;58.70;;;10.82;100.00;96133.50;4971041;28;20391;-48
2023/10/10 02:13:53;;;;;;;;;;;15.10;58.70;;;10.77;100.00;96133.44;4991448;28;20294;-48
2023/10/10 02:16:23;;;;;;;;;;;15.10;58.80;;;10.76;100.00;96129.16;4988872;28;20327;-46
2023/10/10 02:18:53;;;;;;;;;;;15.00;58.80;;;10.75;100.00;96128.38;4990550;28;19909;-48
2023/10/10 02:21:31;;;;;;;;;;;15.00;58.90;;;10.73;100.00;96125.13;4990949;28;20060;-46
2023/10/10 02:24:19;;;;;;;;;;;15.00;58.90;;;10.72;100.00;96125.38;4981332;28;20004;-46
2023/10/10 02:26:51;;;;;;;;;;;15.00;59.00;;;10.71;100.00;96118.44;4991092;28;19913;-46
2023/10/10 02:29:21;;;;;;;;;;;15.00;59.00;;;10.65;100.00;96134.41;4985266;28;20008;-47
2023/10/10 02:31:56;;;;;;;;;;;15.00;59.10;;;10.63;100.00;96123.19;4990378;28;19982;-50
2023/10/10 02:34:22;;;;;;;;;;;14.90;59.00;;;10.61;100.00;96129.81;4988407;28;19944;-46
2023/10/10 02:37:13;;;;;;;;;;;14.90;59.10;;;10.58;100.00;96128.44;4991375;28;20372;-46
2023/10/10 02:39:41;;;;;;;;;;;14.90;59.10;;;10.56;100.00;96121.75;4990279;28;19913;-50
2023/10/10 02:42:13;;;;;;;;;;;14.90;59.20;;;10.53;100.00;96120.44;4977308;28;20288;-47
2023/10/10 02:44:46;;;;;;;;;;;14.90;59.20;;;10.46;100.00;96121.66;4994861;28;20387;-52
2023/10/10 02:47:14;;;;;;;;;;;14.80;59.20;;;10.47;100.00;96121.44;4988352;28;19913;-49
2023/10/10 02:49:42;;;;;;;;;;;14.80;59.30;;;10.45;100.00;96118.19;4994159;28;19917;-47
2023/10/10 02:52:14;;;;;;;;;;;14.80;59.30;;;10.47;100.00;96125.94;4993667;28;19916;-53
2023/10/10 02:54:53;;;;;;;;;;;14.80;59.40;;;10.51;100.00;96127.06;4986229;28;19967;-48
2023/10/10 03:00:15;;;;;;;;;;;14.80;59.50;;;10.55;100.00;96117.50;4985256;28;20333;-46
2023/10/10 03:02:53;;;;;;;;;;;14.80;59.60;;;10.60;100.00;96121.03;4987607;28;19945;-53
2023/10/10 03:05:39;;;;;;;;;;;14.80;59.60;;;10.57;100.00;96126.06;4978122;28;19933;-47
2023/10/10 03:08:16;;;;;;;;;;;14.80;59.60;;;10.59;100.00;96124.75;4994319;28;19913;-47
2023/10/10 03:10:46;;;;;;;;;;;14.80;59.60;;;10.59;100.00;96130.06;4987081;28;19913;-49
2023/10/10 03:13:27;;;;;;;;;;;14.80;59.70;;;10.61;100.00;96127.94;4981299;28;20011;-49
2023/10/10 03:15:55;;;;;;;;;;;14.80;59.70;;;10.58;100.00;96117.78;4994206;28;19909;-46
2023/10/10 03:18:29;;;;;;;;;;;14.80;59.70;;;10.56;100.00;96111.09;4990068;28;19917;-46
2023/10/10 03:21:18;;;;;;;;;;;14.80;59.70;;;10.57;100.00;96124.19;4993694;28;19910;-47
2023/10/10 03:23:54;;;;;;;;;;;14.80;59.80;;;10.56;100.00;96111.94;4987096;28;19909;-54
2023/10/10 03:29:20;;;;;;;;;;;14.80;59.80;;;10.61;100.00;96124.47;4959070;28;19945;-48
2023/10/10 03:32:19;;;;;;;;;;;14.80;60.00;;;10.60;100.00;96126.34;4992648;28;20067;-46
2023/10/10 03:34:45;;;;;;;;;;;14.80;59.90;;;10.61;100.00;96122.63;4990696;28;19964;-47
2023/10/10 03:37:28;;;;;;;;;;;14.80;60.00;;;10.63;100.00;96119.72;4993667;28;19948;-47
2023/10/10 03:40:21;;;;;;;;;;;14.80;59.90;;;10.62;100.00;96112.75;4992841;28;19909;-51
2023/10/10 05:24:43;;;;;;;;;;;14.70;61.00;;;10.43;100.00;96106.97;5022090;28;20066;-44
2023/10/10 05:27:11;;;;;;;;;;;14.70;61.00;;;10.46;100.00;96111.81;5030779;28;19936;-44
2023/10/10 05:29:38;;;;;;;;;;;14.70;61.00;;;10.48;100.00;96108.91;5029273;28;20274;-44
2023/10/10 05:32:08;;;;;;;;;;;14.70;61.00;;;10.47;100.00;96109.97;5030710;28;19977;-44
2023/10/10 05:34:34;;;;;;;;;;;14.70;61.00;;;10.50;100.00;96106.78;5029893;28;19916;-45
2023/10/10 05:37:01;;;;;;;;;;;14.70;61.00;;;10.52;100.00;96110.00;5020691;28;19966;-47
2023/10/10 05:39:32;;;;;;;;;;;14.70;61.10;;;10.56;100.00;96106.59;5028345;28;19995;-45
2023/10/10 05:42:01;;;;;;;;;;;14.80;61.20;;;10.56;100.00;96100.44;5016983;28;19916;-50
2023/10/10 05:44:26;;;;;;;;;;;14.80;61.20;;;10.59;100.00;96105.28;5028810;28;19972;-46
2023/10/10 05:46:55;;;;;;;;;;;14.80;61.20;;;10.60;100.00;96096.25;5025555;28;19920;-48
2023/10/10 05:49:21;;;;;;;;;;;14.80;61.20;;;10.63;100.00;96109.88;5020114;28;19924;-47
2023/10/10 05:51:47;;;;;;;;;;;14.90;61.20;;;10.65;100.00;96110.44;5021903;28;19917;-45
2023/10/10 05:54:13;;;;;;;;;;;14.90;61.20;;;10.65;100.00;96105.09;5022487;28;19920;-48
2023/10/10 05:56:38;;;;;;;;;;;14.90;61.00;;;10.61;100.00;96106.63;5013854;28;19931;-49
2023/10/10 05:59:04;;;;;;;;;;;14.90;61.00;;;10.62;100.00;96110.09;5013851;28;20409;-44
2023/10/10 06:01:36;;;;;;;;;;;15.00;61.10;;;10.60;100.00;96112.22;5027533;28;19925;-47
2023/10/10 06:04:01;;;;;;;;;;;15.00;61.00;;;10.57;100.00;96118.84;5023832;28;19935;-47
2023/10/10 06:06:28;;;;;;;;;;;15.00;60.90;;;10.63;100.00;96125.84;5029579;28;19909;-46
2023/10/10 06:09:00;;;;;;;;;;;15.00;61.00;;;10.62;100.00;96121.59;5026850;28;19947;-45
2023/10/10 06:11:27;;;;;;;;;;;15.00;60.90;;;10.65;100.00;96129.06;5019130;28;20380;-48
2023/10/10 06:13:53;;;;;;;;;;;15.10;61.00;;;10.68;100.00;96130.41;5022208;28;19952;-45
2023/10/10 06:16:20;;;;;;;;;;;15.10;61.00;;;10.68;100.00;96127.75;5022456;28;20062;-44
2023/10/10 06:18:49;;;;;;;;;;;15.10;61.00;;;10.66;100.00;96127.22;5028531;28;19961;-45
2023/10/10 06:21:18;;;;;;;;;;;15.20;60.90;;;10.69;100.00;96126.72;5034040;28;19928;-47
2023/10/10 06:23:44;;;;;;;;;;;15.20;60.80;;;10.75;100.00;96128.38;5033340;28;19909;-45
2023/10/10 06:26:12;;;;;;;;;;;15.30;60.80;;;10.80;100.00;96125.72;5034445;28;19954;-45
2023/10/10 06:28:47;;;;;;;;;;;15.30;60.90;;;10.87;100.00;96128.19;5033314;28;19913;-48
2023/10/10 06:31:19;;;;;;;;;;;15.40;60.90;;;10.98;100.00;96126.44;5031288;28;20445;-47
2023/10/10 06:33:49;;;;;;;;;;;15.50;61.00;;;11.04;100.00;96128.09;5034074;28;19950;-45
2023/10/10 06:38:46;;;;;;;;;;;15.60;61.10;;;11.36;100.00;96128.06;5034215;28;19962;-45
2023/10/10 06:41:17;;;;;;;;;;;15.70;61.10;;;11.46;100.00;96133.47;5032553;28;19928;-45
2023/10/10 06:43:46;;;;;;;;;;;15.90;61.10;;;11.58;100.00;96135.94;5034548;28;19913;-50
2023/10/10 06:46:17;;;;;;;;;;;16.00;61.00;;;11.67;100.00;96129.06;5033587;28;20014;-50
2023/10/10 06:48:47;;;;;;;;;;;16.20;61.00;;;11.81;100.00;96127.56;5025285;28;19912;-45
2023/10/10 06:51:22;;;;;;;;;;;16.30;60.90;;;11.99;100.00;96138.88;5033526;28;19909;-45
2023/10/10 06:53:54;;;;;;;;;;;16.50;61.00;;;12.17;100.00;96138.44;5031623;28;20392;-45
2023/10/10 06:56:34;;;;;;;;;;;16.60;60.90;;;12.32;100.00;96128.88;5026591;28;20431;-45
2023/10/10 06:59:01;;;;;;;;;;;16.80;60.80;;;12.45;100.00;96131.88;5032635;28;19908;-46
2023/10/10 07:01:28;;;;;;;;;;;17.00;60.70;;;12.60;100.00;96133.78;5028701;28;19917;-48
2023/10/10 07:04:00;;;;;;;;;;;17.20;60.60;;;12.75;100.00;96141.00;5034110;28;20297;-45
2023/10/10 07:06:29;;;;;;;;;;;17.40;60.90;;;12.93;100.00;96134.38;5033182;28;19912;-50
2023/10/10 07:11:40;;;;;;;;;;;17.80;60.10;;;13.37;100.00;96137.34;5031762;28;20015;-44
2023/10/10 07:14:09;;;;;;;;;;;18.10;59.90;;;13.64;100.00;96142.41;5033676;28;19916;-47
2023/10/10 07:16:35;;;;;;;;;;;18.40;59.70;;;13.90;100.00;96137.00;5032180;28;20328;-53
2023/10/10 07:19:18;;;;;;;;;;;18.80;59.40;;;14.23;100.00;96142.81;5033439;28;20002;-45
2023/10/10 07:21:50;;;;;;;;;;;19.10;59.20;;;14.55;96.64;96140.53;5027701;28;20058;-47
2023/10/10 07:24:16;;;;;;;;;;;19.50;58.90;;;14.87;94.27;96143.84;5023601;28;19916;-45
2023/10/10 07:26:58;;;;;;;;;;;19.80;58.60;;;15.16;92.80;96136.66;5023910;28;19919;-45
2023/10/10 07:31:53;;;;;;;;;;;20.60;58.10;;;15.85;87.11;96134.75;5023421;28;20054;-47
2023/10/10 07:34:24;;;;;;;;;;;20.90;57.80;;;16.21;85.84;96133.59;5024411;28;19995;-46
2023/10/10 07:36:50;;;;;;;;;;;21.20;57.40;;;16.56;85.44;96132.34;5024817;28;20394;-44
2023/10/10 07:39:32;;;;;;;;;;;21.60;57.10;;;16.88;84.48;96131.66;5026907;28;19954;-45
2023/10/10 07:41:58;;;;;;;;;;;21.90;56.90;;;17.18;82.87;96138.47;5023545;28;19909;-50
2023/10/10 07:44:24;;;;;;;;;;;22.20;56.60;;;17.44;80.59;96143.47;5026854;28;20004;-45
2023/10/10 07:49:34;;;;;;;;;;;22.70;56.00;;;17.81;77.81;96137.19;5024260;28;19916;-44
2023/10/10 07:52:04;;;;;;;;;;;23.00;55.70;;;18.04;76.03;96147.00;5025306;28;19909;-44
2023/10/10 07:54:38;;;;;;;;;;;23.20;55.30;;;18.30;74.77;96148.41;5022248;28;19915;-45
2023/10/10 07:57:17;;;;;;;;;;;23.50;55.00;;;18.48;73.69;96147.50;5025935;28;19909;-46
2023/10/10 07:59:44;;;;;;;;;;;23.80;54.70;;;18.54;73.26;96149.00;5022241;28;19909;-45
2023/10/10 08:02:25;;;;;;;;;;;24.10;54.30;;;18.67;72.17;96141.97;5024953;28;19990;-46
2023/10/10 08:04:54;;;;;;;;;;;24.30;53.80;;;18.89;70.71;96144.75;5024857;28;19916;-48
2023/10/10 08:07:22;;;;;;;;;;;24.60;53.40;;;19.12;70.37;96139.41;5032201;28;19913;-47
2023/10/10 08:09:48;;;;;;;;;;;24.90;53.10;;;19.42;68.61;96141.38;5032255;28;19958;-54
2023/10/10 08:12:16;;;;;;;;;;;25.10;52.90;;;19.64;67.75;96145.19;5025419;28;19908;-46
2023/10/10 08:14:43;;;;;;;;;;;25.30;52.60;;;19.79;66.62;96144.03;5026494;28;20008;-45
2023/10/10 08:17:25;;;;;;;;;;;25.50;52.30;;;19.90;66.66;96145.38;5025970;28;19920;-49
2023/10/10 08:19:51;;;;;;;;;;;25.80;52.00;;;20.20;65.10;96142.94;5022215;28;19980;-46
2023/10/10 08:22:27;;;;;;;;;;;26.10;51.70;;;20.52;64.30;96141.81;5023030;28;19909;-49
2023/10/10 08:24:52;;;;;;;;;;;26.40;51.40;;;20.73;62.80;96133.91;5026646;28;19999;-45
2023/10/10 08:27:18;;;;;;;;;;;26.80;51.70;;;21.14;62.07;96141.56;5032010;28;19988;-46
2023/10/10 08:29:45;;;;;;;;;;;27.10;50.80;;;21.42;60.53;96136.66;5031401;28;20325;-46
2023/10/10 08:32:12;;;;;;;;;;;27.50;50.50;;;21.68;59.94;96146.66;5023955;28;20286;-44
2023/10/10 08:34:42;;;;;;;;;;;27.70;50.20;;;21.93;58.45;96134.16;5031058;28;19922;-47
2023/10/10 08:37:09;;;;;;;;;;;28.00;49.80;;;22.02;58.08;96136.84;5031436;28;20019;-46
2023/10/10 08:39:36;;;;;;;;;;;28.20;49.40;;;22.22;56.74;96141.59;5032322;28;19998;-49
2023/10/10 08:42:10;;;;;;;;;;;28.30;49.00;;;22.53;56.55;96140.47;5029693;28;19947;-46
2023/10/10 08:44:40;;;;;;;;;;;28.60;48.80;;;22.71;55.72;96139.25;5027443;28;20279;-45
2023/10/10 08:47:16;;;;;;;;;;;28.80;48.60;;;22.90;54.38;96138.03;5030558;28;19913;-46
2023/10/10 08:49:47;;;;;;;;;;;28.90;48.30;;;22.91;54.54;96143.16;5031828;28;19912;-45
2023/10/10 08:52:15;;;;;;;;;;;28.90;47.80;;;23.01;54.83;96148.22;5031731;28;19916;-45
2023/10/10 08:54:44;;;;;;;;;;;28.90;47.60;;;22.76;55.65;96139.06;5031220;28;20003;-47
2023/10/10 08:57:12;;;;;;;;;;;28.90;47.50;;;22.71;55.79;96150.13;5031123;28;19915;-50
2023/10/10 08:59:42;;;;;;;;;;;28.90;47.30;;;22.50;55.75;96150.09;5030864;28;19909;-48
2023/10/10 09:02:17;;;;;;;;;;;28.80;47.10;;;22.45;56.40;96150.28;5028490;28;19917;-46
2023/10/10 09:04:43;;;;;;;;;;;28.70;47.00;;;22.39;57.02;96149.66;5027547;28;19973;-45
2023/10/10 09:07:27;;;;;;;;;;;28.50;46.80;;;22.31;57.49;96147.78;5029660;28;19920;-49
2023/10/10 09:10:06;;;;;;;;;;;28.50;46.80;;;22.40;58.09;96143.09;5031343;28;19977;-46
2023/10/10 09:12:52;;;;;;;;;;;28.40;46.80;;;22.56;56.86;96148.78;5030267;28;20367;-49
2023/10/10 09:15:19;;;;;;;;;;;28.50;46.70;;;22.66;56.54;96153.03;5031479;28;19920;-47
2023/10/10 09:17:47;;;;;;;;;;;28.70;46.60;;;22.93;55.48;96145.50;5026023;28;20332;-47
2023/10/10 09:20:27;;;;;;;;;;;28.90;46.40;;;23.06;54.73;96148.03;5030887;28;19947;-47
2023/10/10 09:23:02;;;;;;;;;;;29.20;46.20;;;23.18;53.97;96141.03;5030403;28;20323;-46
2023/10/10 09:25:41;;;;;;;;;;;29.40;46.00;;;23.32;53.39;96149.75;5031380;28;20387;-47
2023/10/10 09:28:10;;;;;;;;;;;29.50;45.90;;;23.44;53.77;96149.78;5030871;28;19913;-45
2023/10/10 09:30:49;;;;;;;;;;;29.60;45.60;;;23.58;53.37;96146.00;5027372;28;19986;-45
2023/10/10 09:33:23;;;;;;;;;;;29.80;45.60;;;23.68;52.29;96143.63;5031059;28;19942;-48
2023/10/10 09:36:15;;;;;;;;;;;29.90;45.70;;;23.87;51.63;96142.34;5025633;28;20287;-49
2023/10/10 09:38:46;;;;;;;;;;;30.20;45.40;;;24.03;50.91;96146.03;5030714;28;19909;-45
2023/10/10 09:41:28;;;;;;;;;;;30.30;45.20;;;24.10;51.13;96146.28;5030205;28;19915;-46
2023/10/10 09:47:17;;;;;;;;;;;30.60;44.70;;;24.44;50.44;96147.00;5026466;28;19948;-47
2023/10/10 09:50:00;;;;;;;;;;;31.00;44.50;;;24.87;48.89;96145.63;5030741;28;19916;-47
2023/10/10 09:52:50;;;;;;;;;;;31.40;44.20;;;25.20;47.60;96145.47;5030634;28;20381;-45
2023/10/10 10:09:14;;;;;;;;;;;32.40;42.90;;;26.17;44.10;96139.94;5026331;28;19924;-51
2023/10/10 10:12:19;;;;;;;;;;;32.30;42.60;;;26.23;44.07;96144.78;5029199;28;19916;-50
2023/10/10 10:15:39;;;;;;;;;;;32.40;42.50;;;26.28;44.57;96143.72;5032129;28;19912;-45
2023/10/10 10:18:13;;;;;;;;;;;32.70;42.30;;;26.50;43.77;96140.38;5024054;28;20460;-50
2023/10/10 10:21:05;;;;;;;;;;;33.20;42.00;;;26.77;42.60;96138.69;5024019;28;19913;-46
2023/10/10 10:23:38;;;;;;;;;;;33.50;41.60;;;26.93;42.77;96146.84;5027531;28;20433;-47
2023/10/10 10:26:04;;;;;;;;;;;33.80;41.40;;;26.86;41.47;96143.97;5026273;28;19909;-48
2023/10/10 10:28:40;;;;;;;;;;;34.00;41.30;;;26.43;42.55;96142.13;5030345;28;20410;-47
2023/10/10 10:31:27;;;;;;;;;;;34.10;40.90;;;26.79;41.91;96143.00;5033100;28;20006;-48
2023/10/10 10:34:08;;;;;;;;;;;34.30;40.60;;;26.87;41.34;96145.53;5031015;28;19999;-48
2023/10/10 10:37:06;;;;;;;;;;;34.40;40.40;;;27.27;40.96;96147.22;5031958;28;19940;-47
2023/10/10 10:39:35;;;;;;;;;;;34.60;40.00;;;27.65;40.83;96140.94;5031079;23;19971;-53
2023/10/10 10:42:12;;;;;;;;;;;34.80;39.50;;;28.05;39.41;96142.50;4993156;28;19913;-50
2023/10/10 10:44:47;;;;;;;;;;;35.10;40.10;;;28.19;39.53;96147.44;4988854;28;19945;-49
2023/10/10 10:47:46;;;;;;;;;;;35.20;39.20;;;28.42;38.35;96144.69;4986140;28;19928;-48
2023/10/10 10:50:29;;;;;;;;;;;35.40;38.90;;;28.44;38.96;96153.34;4993627;28;19909;-54
2023/10/10 10:53:08;;;;;;;;;;;35.50;38.60;;;28.53;38.20;96142.16;4992824;28;20440;-54
2023/10/10 10:55:40;;;;;;;;;;;35.70;38.40;;;28.55;38.85;96140.63;4993619;28;20342;-49
2023/10/10 11:01:07;;;;;;;;;;;36.30;37.90;;;29.29;38.34;96142.09;4993726;28;19917;-52
2023/10/10 11:03:38;;;;;;;;;;;36.60;37.60;;;29.28;38.21;96137.78;4993348;28;19956;-52
2023/10/10 11:06:14;;;;;;;;;;;36.90;37.30;;;29.48;37.62;96128.22;4986273;28;20383;-50
2023/10/10 11:11:27;;;;;;;;;;;37.20;36.90;;;29.50;36.19;96125.88;4985075;28;20375;-48
2023/10/10 11:16:45;;;;;;;;;;;37.40;36.40;;;29.72;35.30;96120.69;4993364;28;19917;-54
2023/10/10 11:21:56;;;;;;;;;;;37.60;35.40;;;29.65;35.91;96109.63;4992714;28;20335;-54
2023/10/10 11:24:31;;;;;;;;;;;37.60;34.70;;;29.62;36.68;96119.41;4992936;28;20398;-49
2023/10/10 11:29:44;;;;;;;;;;;37.70;34.20;;;30.11;34.65;96106.53;4992517;28;20024;-54
2023/10/10 11:32:23;;;;;;;;;;;37.90;34.00;;;29.95;33.32;96093.84;4993595;28;19955;-55
2023/10/10 11:35:11;;;;;;;;;;;38.10;33.70;;;30.09;33.38;96095.16;5007556;28;19921;-56
2023/10/10 11:37:45;;;;;;;;;;;38.20;33.50;;;30.36;33.48;96088.31;4993705;28;19937;-54
2023/10/10 11:40:19;;;;;;;;;;;38.50;33.40;;;30.58;32.83;96081.03;4992643;28;19918;-55
2023/10/10 11:42:47;;;;;;;;;;;38.70;33.20;;;30.70;33.36;96076.41;4993668;28;19917;-52
2023/10/10 11:45:18;;;;;;;;;;;38.90;32.80;;;30.64;33.47;96079.50;4993643;28;19953;-52
2023/10/10 11:47:47;;;;;;;;;;;39.00;32.50;;;30.58;33.00;96072.00;4992544;28;19913;-53
2023/10/10 11:50:17;;;;;;;;;;;39.10;32.40;;;30.65;32.95;96072.06;4992812;28;20012;-52
2023/10/10 11:52:58;;;;;;;;;;;39.20;32.20;;;30.62;33.54;96072.84;4992587;28;19909;-52
2023/10/10 11:55:28;;;;;;;;;;;39.10;32.00;;;30.64;33.57;96071.25;4993539;28;20428;-51
2023/10/10 11:58:06;;;;;;;;;;;38.90;31.80;;;30.61;33.71;96071.22;4993002;28;19909;-55
2023/10/10 12:00:42;;;;;;;;;;;38.80;31.70;;;30.29;33.50;96066.31;4991403;28;20423;-56
2023/10/10 12:03:12;;;;;;;;;;;38.80;31.60;;;30.22;33.37;96063.50;4993018;28;19952;-52
2023/10/10 12:05:48;;;;;;;;;;;38.80;31.60;;;30.17;33.89;96064.59;4992128;28;19925;-54
2023/10/10 12:08:22;;;;;;;;;;;38.90;31.50;;;29.56;34.87;96062.44;4992782;28;19920;-54
2023/10/10 12:10:52;;;;;;;;;;;38.90;31.50;;;29.50;34.79;96056.50;4991620;28;20303;-53
2023/10/10 12:16:13;;;;;;;;;;;38.50;31.10;;;29.54;34.87;96048.31;4992437;28;19959;-54
2023/10/10 12:18:44;;;;;;;;;;;38.10;30.60;;;29.60;34.77;96053.06;4992083;28;19916;-49
2023/10/10 12:21:22;;;;;;;;;;;37.70;30.80;;;29.48;34.78;96053.34;4992231;28;19913;-55
2023/10/10 12:23:52;;;;;;;;;;;37.40;30.80;;;29.45;34.71;96046.63;4991712;28;20380;-55
2023/10/10 12:26:20;;;;;;;;;;;37.30;30.90;;;29.50;35.20;96042.78;4985023;28;20482;-55
2023/10/10 12:28:48;;;;;;;;;;;37.20;30.90;;;29.64;34.66;96040.19;4991257;28;19913;-49
2023/10/10 12:31:17;;;;;;;;;;;37.30;30.80;;;29.92;34.91;96041.63;4991766;28;19914;-55
2023/10/10 12:33:53;;;;;;;;;;;37.50;30.90;;;30.13;33.63;96044.56;4991424;28;20311;-53
2023/10/10 12:36:28;;;;;;;;;;;37.70;31.10;;;30.25;34.46;96042.72;4991569;28;20003;-51
2023/10/10 12:38:55;;;;;;;;;;;38.00;30.80;;;30.37;33.67;96034.97;4992370;28;19913;-56
2023/10/10 12:41:21;;;;;;;;;;;38.30;30.80;;;30.37;33.64;96036.94;4991000;28;19929;-56
2023/10/10 12:43:48;;;;;;;;;;;38.60;31.10;;;30.46;33.37;96031.09;5006810;28;20380;-56
2023/10/10 12:46:17;;;;;;;;;;;38.90;30.40;;;30.59;32.99;96027.66;4990027;28;19909;-58
2023/10/10 12:48:43;;;;;;;;;;;39.20;30.20;;;30.77;32.40;96032.44;5006054;28;19921;-54
2023/10/10 12:51:09;;;;;;;;;;;39.40;29.90;;;30.83;33.07;96030.94;4991184;28;19917;-51
2023/10/10 12:53:39;;;;;;;;;;;39.50;29.70;;;30.91;32.33;96024.31;4990011;28;19914;-52
2023/10/10 12:56:11;;;;;;;;;;;39.50;29.60;;;30.96;33.00;96021.16;4991958;28;19909;-50
2023/10/10 12:58:43;;;;;;;;;;;39.60;29.60;;;30.89;32.80;96021.94;4991304;28;19917;-52
2023/10/10 13:01:12;;;;;;;;;;;39.40;29.50;;;30.49;33.20;96014.63;4991535;28;19910;-49
2023/10/10 13:03:38;;;;;;;;;;;39.20;29.50;;;30.39;33.12;96018.88;4992044;28;19909;-52
2023/10/10 13:06:06;;;;;;;;;;;38.80;29.40;;;30.18;34.22;96013.22;4990891;28;19913;-51
2023/10/10 13:08:47;;;;;;;;;;;38.50;29.40;;;29.80;34.60;96008.97;4988714;28;19992;-53
2023/10/10 13:11:32;;;;;;;;;;;38.30;29.40;;;29.90;35.01;96005.56;4990957;28;19970;-48
2023/10/10 13:14:09;;;;;;;;;;;38.00;29.50;;;29.96;35.16;96002.06;4987205;28;20291;-55
2023/10/10 13:19:09;;;;;;;;;;;37.70;29.70;;;29.81;35.90;95996.84;4991835;28;19910;-51
2023/10/10 13:21:36;;;;;;;;;;;37.50;29.80;;;29.59;35.64;96002.09;4992049;28;19956;-50
2023/10/10 13:24:03;;;;;;;;;;;37.30;29.90;;;29.52;35.93;95997.34;4991228;28;19983;-49
2023/10/10 13:26:39;;;;;;;;;;;37.10;29.90;;;29.29;36.08;95997.47;4985058;28;20368;-48
2023/10/10 13:29:06;;;;;;;;;;;37.10;29.90;;;29.26;36.18;95998.22;4990384;28;19916;-49
2023/10/10 13:31:32;;;;;;;;;;;37.10;29.80;;;29.23;36.26;95993.50;4991989;28;19909;-48
2023/10/10 13:33:59;;;;;;;;;;;37.10;30.20;;;29.18;35.78;96001.28;4991651;28;19909;-53
2023/10/10 13:36:25;;;;;;;;;;;37.20;29.70;;;29.36;36.63;95996.75;4991100;28;19917;-53
2023/10/10 13:38:57;;;;;;;;;;;37.30;29.60;;;29.62;36.51;95995.13;4991449;28;19909;-49
2023/10/10 13:41:28;;;;;;;;;;;37.50;29.70;;;29.82;36.48;95990.97;4991080;28;19925;-50
2023/10/10 13:43:59;;;;;;;;;;;37.60;29.80;;;29.77;35.39;95996.00;4988063;28;20339;-49
2023/10/10 13:46:27;;;;;;;;;;;37.60;29.80;;;29.59;34.96;95988.38;4990866;28;19963;-50
2023/10/10 13:48:53;;;;;;;;;;;37.50;29.70;;;29.47;35.89;95988.66;5006201;28;19913;-50
2023/10/10 13:51:19;;;;;;;;;;;37.40;29.50;;;29.47;36.18;95991.41;4991458;28;19922;-49
2023/10/10 13:53:46;;;;;;;;;;;37.50;29.40;;;29.80;36.24;95985.06;4990787;28;19963;-48
2023/10/10 13:56:16;;;;;;;;;;;37.70;29.40;;;30.05;35.89;95992.69;4991589;28;19916;-48
2023/10/10 13:58:52;;;;;;;;;;;37.80;29.30;;;30.16;35.35;95986.13;4990470;28;20176;-48
2023/10/10 14:04:00;;;;;;;;;;;38.50;29.20;;;30.38;34.43;95986.31;4990356;28;19909;-48
2023/10/10 14:06:33;;;;;;;;;;;38.70;29.10;;;29.96;34.50;95979.31;4990933;28;20000;-48
2023/10/10 14:09:00;;;;;;;;;;;38.60;28.70;;;29.74;34.62;95983.81;4990924;28;19944;-49
2023/10/10 14:11:26;;;;;;;;;;;38.40;28.70;;;29.47;36.14;95983.16;4990985;28;19979;-50
2023/10/10 14:13:55;;;;;;;;;;;38.10;28.60;;;29.63;35.78;95981.00;4991413;28;20356;-48
2023/10/10 14:16:23;;;;;;;;;;;37.70;28.60;;;29.59;35.60;95977.41;4991272;28;19945;-52
2023/10/10 14:18:50;;;;;;;;;;;37.40;28.80;;;29.48;36.68;95971.81;4990335;28;19959;-50
2023/10/10 14:21:25;;;;;;;;;;;37.20;28.90;;;29.29;37.70;95972.00;4991405;28;20426;-48
2023/10/10 14:24:06;;;;;;;;;;;37.00;28.90;;;29.34;37.67;95971.69;4990461;28;19921;-52